Terminal Aerodrome Forecast
Issued by NWS

Home | Current Version | Previous Version | Text Only | Print | Product List | Glossary On
Versions: 1 2 3 4 5 6 7 8 9 10 11 12 13 14 15
000
FTUS45 KTFX 280520
TAFCTB
TAF
KCTB 280520Z 2806/2906 29005KT P6SM SCT060 BKN080
     FM281500 34012KT P6SM -SHRA BKN040
     FM282000 36014KT P6SM VCTS BKN040CB PROB30 2820/2824 VRB25G35KT
      3SM -TSRA BKN030CB
     FM290000 02012KT P6SM VCSH SCT020 BKN030=

USA.gov is the U.S. government's official web portal to all federal, state and local government web resources and services.